createdAt,value
2017-12-30T00:01:50.658Z,80.50
2017-12-30T00:04:17.101Z,80.50
2017-12-30T00:06:44.254Z,81.90
2017-12-30T00:09:10.629Z,81.80
2017-12-30T00:11:37.022Z,81.60
2017-12-30T00:14:03.397Z,81.50
2017-12-30T00:16:29.792Z,81.20
2017-12-30T00:18:56.905Z,80.40
2017-12-30T00:21:23.295Z,80.30
2017-12-30T00:23:50.409Z,80.20
2017-12-30T00:26:16.791Z,80.20
2017-12-30T00:28:43.190Z,81.20
2017-12-30T00:31:10.328Z,83.70
2017-12-30T00:33:36.713Z,83.70
2017-12-30T00:36:03.094Z,83.30
2017-12-30T00:38:30.239Z,82.10
2017-12-30T00:40:57.374Z,82.20
2017-12-30T00:43:23.776Z,82.10
2017-12-30T00:45:50.144Z,82.00
2017-12-30T00:48:16.537Z,82.20
2017-12-30T00:50:42.942Z,82.50
2017-12-30T00:53:09.383Z,82.90
2017-12-30T00:55:35.773Z,82.70
2017-12-30T00:58:02.163Z,82.10
2017-12-30T01:00:28.538Z,81.80
2017-12-30T01:02:55.005Z,81.10
2017-12-30T01:05:21.448Z,81.10
2017-12-30T01:07:47.842Z,82.50
2017-12-30T01:10:14.987Z,82.40
2017-12-30T01:12:41.389Z,82.40
2017-12-30T01:15:07.751Z,81.60
2017-12-30T01:17:34.182Z,81.60
2017-12-30T01:20:01.313Z,81.90
2017-12-30T01:22:27.694Z,81.90
2017-12-30T01:24:54.070Z,81.60
2017-12-30T01:27:20.452Z,81.40
2017-12-30T01:29:47.615Z,80.60
2017-12-30T01:32:13.987Z,80.60
2017-12-30T01:34:40.386Z,80.80
2017-12-30T01:37:06.805Z,80.80
2017-12-30T01:39:33.197Z,80.70
2017-12-30T01:41:59.598Z,80.70
2017-12-30T01:44:25.959Z,80.40
2017-12-30T01:46:52.366Z,80.40
2017-12-30T01:49:18.762Z,80.60
2017-12-30T01:51:45.168Z,80.30
2017-12-30T01:54:11.568Z,80.30
2017-12-30T01:56:37.954Z,80.60
2017-12-30T01:59:05.069Z,80.20
2017-12-30T02:01:31.462Z,80.10
2017-12-30T02:03:58.584Z,81.00
2017-12-30T02:06:25.742Z,80.70
2017-12-30T02:08:52.136Z,80.70
2017-12-30T02:11:18.533Z,80.50
2017-12-30T02:13:44.934Z,80.50
2017-12-30T02:16:12.082Z,81.20
2017-12-30T02:18:39.231Z,81.80
2017-12-30T02:21:05.609Z,81.80
2017-12-30T02:23:31.997Z,81.60
2017-12-30T02:25:58.402Z,81.30
2017-12-30T02:28:25.524Z,81.40
2017-12-30T02:30:51.909Z,81.40
2017-12-30T02:33:18.297Z,82.10
2017-12-30T02:35:44.699Z,82.00
2017-12-30T02:38:11.098Z,82.00
2017-12-30T02:40:38.242Z,82.10
2017-12-30T02:43:04.617Z,82.00
2017-12-30T02:45:31.013Z,81.70
2017-12-30T02:47:58.170Z,82.40
2017-12-30T02:50:24.656Z,82.40
2017-12-30T02:52:51.029Z,82.50
2017-12-30T02:55:18.158Z,81.10
2017-12-30T02:57:45.291Z,81.10
2017-12-30T03:00:11.695Z,81.10
2017-12-30T03:02:38.069Z,81.50
2017-12-30T03:05:04.465Z,81.30
2017-12-30T03:07:30.887Z,82.60
2017-12-30T03:09:57.321Z,82.00
2017-12-30T03:12:23.727Z,81.80
2017-12-30T03:14:50.144Z,82.80
2017-12-30T03:17:17.250Z,82.00
2017-12-30T03:19:43.641Z,82.00
2017-12-30T03:22:10.050Z,82.30
2017-12-30T03:24:37.142Z,82.60
2017-12-30T03:27:03.515Z,82.60
2017-12-30T03:29:29.901Z,82.80
2017-12-30T03:31:56.286Z,82.50
2017-12-30T03:34:22.665Z,82.60
2017-12-30T03:36:49.071Z,82.60
2017-12-30T03:39:16.186Z,83.70
2017-12-30T03:41:42.602Z,83.70
2017-12-30T03:44:08.984Z,83.70
2017-12-30T03:46:35.351Z,83.90
2017-12-30T03:49:01.726Z,83.80
2017-12-30T03:51:28.864Z,82.50
2017-12-30T03:53:55.228Z,82.40
2017-12-30T03:56:22.355Z,81.80
2017-12-30T03:58:49.474Z,81.60
2017-12-30T04:01:15.856Z,81.60
2017-12-30T04:03:42.994Z,81.30
2017-12-30T04:06:10.117Z,81.40
2017-12-30T04:08:36.510Z,81.40
2017-12-30T04:11:02.964Z,81.10
2017-12-30T04:13:29.355Z,82.00
2017-12-30T04:15:55.730Z,81.90
2017-12-30T04:18:22.143Z,82.40
2017-12-30T04:20:48.516Z,82.50
2017-12-30T04:23:14.877Z,82.60
2017-12-30T04:25:42.023Z,82.90
2017-12-30T04:28:09.161Z,82.50
2017-12-30T04:30:36.298Z,82.90
2017-12-30T04:33:02.682Z,82.80
2017-12-30T04:35:29.120Z,83.40
2017-12-30T04:37:55.523Z,83.40
2017-12-30T04:40:21.907Z,83.50
2017-12-30T04:42:48.299Z,83.10
2017-12-30T04:45:14.667Z,84.80
2017-12-30T04:47:41.079Z,84.50
2017-12-30T04:50:07.465Z,84.00
2017-12-30T04:52:34.604Z,83.70
2017-12-30T04:55:00.982Z,83.70
2017-12-30T04:57:27.409Z,83.30
2017-12-30T04:59:53.804Z,83.30
2017-12-30T05:02:20.925Z,83.80
2017-12-30T05:04:47.306Z,83.10
2017-12-30T05:07:13.711Z,83.30
2017-12-30T05:09:40.086Z,83.50
2017-12-30T05:12:06.503Z,83.50
2017-12-30T05:14:32.911Z,83.70
2017-12-30T05:17:00.058Z,83.10
2017-12-30T05:19:26.475Z,83.10
2017-12-30T05:21:52.861Z,82.90
2017-12-30T05:24:19.252Z,83.30
2017-12-30T05:26:46.394Z,83.30
2017-12-30T05:29:12.771Z,83.30
2017-12-30T05:31:39.222Z,83.60
2017-12-30T05:34:05.627Z,83.50
2017-12-30T05:36:32.733Z,84.40
2017-12-30T05:38:59.094Z,84.40
2017-12-30T05:41:25.482Z,83.90
2017-12-30T05:43:51.899Z,84.00
2017-12-30T05:46:18.332Z,83.90
2017-12-30T05:48:44.710Z,83.50
2017-12-30T05:51:11.164Z,83.10
2017-12-30T05:53:38.283Z,82.90
2017-12-30T05:56:04.675Z,83.00
2017-12-30T05:58:31.132Z,83.00
2017-12-30T06:00:59.002Z,83.00
2017-12-30T06:03:25.444Z,83.00
2017-12-30T06:05:51.838Z,83.20
2017-12-30T06:08:18.228Z,83.40
2017-12-30T06:10:44.673Z,82.60
2017-12-30T06:13:11.055Z,83.00
2017-12-30T06:15:37.452Z,83.20
2017-12-30T06:18:03.810Z,83.00
2017-12-30T06:20:30.983Z,82.90
2017-12-30T06:22:58.086Z,82.80
2017-12-30T06:25:24.487Z,82.80
2017-12-30T06:27:51.621Z,83.30
2017-12-30T06:30:18.014Z,83.30
2017-12-30T06:32:44.393Z,83.10
2017-12-30T06:35:11.532Z,84.10
2017-12-30T06:37:37.900Z,84.10
2017-12-30T06:40:04.281Z,84.60
2017-12-30T06:42:30.666Z,84.00
2017-12-30T06:44:57.099Z,83.70
2017-12-30T06:47:23.481Z,83.30
2017-12-30T06:49:49.858Z,83.40
2017-12-30T06:52:16.245Z,83.40
2017-12-30T06:54:42.620Z,83.60
2017-12-30T06:57:09.008Z,83.70
2017-12-30T06:59:35.441Z,84.00
2017-12-30T07:02:01.830Z,84.20
2017-12-30T07:04:28.469Z,84.00
2017-12-30T07:06:54.854Z,83.70
2017-12-30T07:09:22.006Z,84.10
2017-12-30T07:11:49.144Z,83.30
2017-12-30T07:14:15.539Z,83.30
2017-12-30T07:16:41.965Z,83.40
2017-12-30T07:19:08.387Z,82.90
2017-12-30T07:21:34.803Z,82.90
2017-12-30T07:24:01.930Z,83.20
2017-12-30T07:29:05.130Z,83.30
2017-12-30T07:31:31.543Z,83.70
2017-12-30T07:33:57.943Z,83.80
2017-12-30T07:36:24.310Z,83.70
2017-12-30T07:38:50.702Z,83.90
2017-12-30T07:41:17.140Z,83.80
2017-12-30T07:43:43.554Z,83.80
2017-12-30T07:46:10.694Z,83.30
2017-12-30T07:48:37.856Z,83.10
2017-12-30T07:51:04.262Z,83.10
2017-12-30T07:53:30.650Z,83.10
2017-12-30T07:55:57.034Z,83.50
2017-12-30T07:58:24.170Z,83.50
2017-12-30T08:00:50.614Z,83.50
2017-12-30T08:03:17.750Z,84.10
2017-12-30T08:05:44.166Z,84.00
2017-12-30T08:08:10.601Z,84.30
2017-12-30T08:10:36.985Z,84.40
2017-12-30T08:13:03.357Z,84.30
2017-12-30T08:15:29.833Z,84.00
2017-12-30T08:17:56.986Z,84.30
2017-12-30T08:20:23.388Z,84.30
2017-12-30T08:22:49.782Z,84.00
2017-12-30T08:25:16.958Z,84.30
2017-12-30T08:27:43.343Z,83.90
2017-12-30T08:30:10.501Z,84.20
2017-12-30T08:32:37.616Z,84.10
2017-12-30T08:35:04.011Z,84.70
2017-12-30T08:37:30.382Z,83.10
2017-12-30T08:39:56.767Z,83.40
2017-12-30T08:42:23.177Z,83.50
2017-12-30T08:44:49.570Z,83.10
2017-12-30T08:47:15.953Z,83.70
2017-12-30T08:49:42.450Z,83.50
2017-12-30T08:52:09.578Z,83.40
2017-12-30T08:54:35.972Z,82.80
2017-12-30T08:57:02.355Z,83.00
2017-12-30T08:59:29.481Z,83.30
2017-12-30T09:01:55.862Z,83.30
2017-12-30T09:04:23.033Z,82.30
2017-12-30T09:06:49.473Z,82.30
2017-12-30T09:09:15.867Z,82.70
2017-12-30T09:11:43.007Z,82.80
2017-12-30T09:14:10.117Z,83.00
2017-12-30T09:16:36.497Z,82.90
2017-12-30T09:19:03.635Z,83.00
2017-12-30T09:21:30.802Z,82.20
2017-12-30T09:23:57.997Z,83.20
2017-12-30T09:26:24.418Z,83.10
2017-12-30T09:28:50.821Z,83.00
2017-12-30T09:31:17.995Z,82.30
2017-12-30T09:33:44.383Z,82.30
2017-12-30T09:36:11.908Z,80.50
2017-12-30T09:38:38.330Z,80.40
2017-12-30T09:41:05.694Z,81.20
2017-12-30T09:43:32.095Z,82.00
2017-12-30T09:45:58.511Z,82.30
2017-12-30T09:48:24.952Z,82.20
2017-12-30T09:50:51.367Z,82.10
2017-12-30T09:53:18.501Z,81.20
2017-12-30T09:55:44.936Z,81.20
2017-12-30T09:58:11.322Z,81.50
2017-12-30T10:00:37.720Z,81.70
2017-12-30T10:03:04.830Z,81.50
2017-12-30T10:05:31.225Z,81.30
2017-12-30T10:07:57.610Z,80.90
2017-12-30T10:10:24.760Z,81.00
2017-12-30T10:12:51.155Z,81.00
2017-12-30T10:15:17.593Z,80.70
2017-12-30T10:17:44.012Z,80.80
2017-12-30T10:20:10.428Z,80.80
2017-12-30T10:22:36.816Z,80.90
2017-12-30T10:25:03.206Z,82.00
2017-12-30T10:27:29.575Z,83.30
2017-12-30T10:29:57.507Z,83.00
2017-12-30T10:32:23.949Z,83.10
2017-12-30T10:34:50.371Z,82.00
2017-12-30T10:37:16.753Z,81.30
2017-12-30T10:39:43.138Z,81.50
2017-12-30T10:42:09.561Z,81.50
2017-12-30T10:44:35.937Z,81.30
2017-12-30T10:47:02.376Z,83.20
2017-12-30T10:49:28.749Z,84.30
2017-12-30T10:51:55.153Z,85.20
2017-12-30T10:54:22.278Z,85.90
2017-12-30T10:56:48.666Z,85.90
2017-12-30T10:59:15.027Z,85.70
2017-12-30T11:01:41.461Z,85.30
2017-12-30T11:04:07.868Z,84.90
2017-12-30T11:06:34.282Z,84.70
2017-12-30T11:09:00.676Z,84.00
2017-12-30T11:11:27.810Z,81.90
2017-12-30T11:13:54.208Z,81.80
2017-12-30T11:16:20.622Z,81.30
2017-12-30T11:18:47.753Z,79.40
2017-12-30T11:21:14.903Z,79.90
2017-12-30T11:23:42.058Z,79.70
2017-12-30T11:26:09.194Z,80.00
2017-12-30T11:28:35.588Z,79.90
2017-12-30T11:31:02.006Z,80.00
2017-12-30T11:33:28.457Z,79.60
2017-12-30T11:35:55.650Z,79.80
2017-12-30T11:38:22.830Z,79.40
2017-12-30T11:40:49.276Z,79.40
2017-12-30T11:43:15.791Z,80.00
2017-12-30T11:45:42.196Z,80.20
2017-12-30T11:48:09.318Z,79.90
2017-12-30T11:50:35.707Z,79.50
2017-12-30T11:53:02.094Z,79.00
2017-12-30T11:55:28.534Z,78.80
2017-12-30T11:57:54.922Z,81.00
2017-12-30T12:00:21.310Z,81.40
2017-12-30T12:02:48.436Z,81.30
2017-12-30T12:05:14.817Z,81.30
2017-12-30T12:07:41.211Z,80.90
2017-12-30T12:10:07.600Z,81.50
2017-12-30T12:12:34.006Z,82.20
2017-12-30T12:15:00.400Z,82.40
2017-12-30T12:17:26.813Z,82.40
2017-12-30T12:19:54.014Z,83.20
2017-12-30T12:22:21.166Z,82.80
2017-12-30T12:24:48.284Z,81.30
2017-12-30T12:27:14.667Z,81.30
2017-12-30T12:29:41.096Z,81.60
2017-12-30T12:32:07.526Z,80.50
2017-12-30T12:34:33.942Z,81.30
2017-12-30T12:37:01.073Z,81.40
2017-12-30T12:39:27.466Z,81.30
2017-12-30T12:41:53.867Z,80.40
2017-12-30T12:44:20.261Z,79.60
2017-12-30T12:46:46.730Z,78.90
2017-12-30T12:49:13.147Z,79.10
2017-12-30T12:51:41.001Z,79.30
2017-12-30T12:54:07.378Z,79.30
2017-12-30T12:56:33.763Z,80.30
2017-12-30T12:59:00.928Z,81.00
2017-12-30T13:01:28.043Z,80.90
2017-12-30T13:03:54.440Z,80.90
2017-12-30T13:06:21.624Z,81.50
2017-12-30T13:08:48.039Z,81.50
2017-12-30T13:11:14.475Z,81.80
2017-12-30T13:13:41.647Z,81.70
2017-12-30T13:16:08.084Z,82.00
2017-12-30T13:18:34.461Z,82.00
2017-12-30T13:21:00.870Z,82.20
2017-12-30T13:23:28.801Z,81.90
2017-12-30T13:25:55.198Z,81.90
2017-12-30T13:28:21.696Z,81.10
2017-12-30T13:30:48.840Z,80.40
2017-12-30T13:33:16.797Z,79.70
2017-12-30T13:35:43.193Z,79.70
2017-12-30T13:38:09.581Z,78.80
2017-12-30T13:40:36.740Z,80.10
2017-12-30T13:43:03.151Z,80.10
2017-12-30T13:45:30.282Z,81.10
2017-12-30T13:47:56.707Z,81.10
2017-12-30T13:50:23.103Z,81.20
2017-12-30T13:52:49.506Z,80.90
2017-12-30T13:55:16.652Z,81.20
2017-12-30T13:57:43.036Z,81.30
2017-12-30T14:00:09.416Z,81.40
2017-12-30T14:02:35.802Z,81.20
2017-12-30T14:05:02.210Z,82.30
2017-12-30T14:07:28.582Z,82.00
2017-12-30T14:09:54.978Z,82.40
2017-12-30T14:12:21.383Z,82.10
2017-12-30T14:14:48.578Z,83.30
2017-12-30T14:17:14.963Z,83.20
2017-12-30T14:19:42.078Z,82.60
2017-12-30T14:22:08.477Z,82.60
2017-12-30T14:24:34.905Z,82.50
2017-12-30T14:27:01.314Z,82.30
2017-12-30T14:29:28.449Z,82.70
2017-12-30T14:31:54.843Z,82.60
2017-12-30T14:34:21.967Z,82.00
2017-12-30T14:36:48.552Z,81.90
2017-12-30T14:39:14.965Z,81.40
2017-12-30T14:41:41.386Z,81.00
2017-12-30T14:44:08.254Z,81.00
2017-12-30T14:46:34.701Z,81.30
2017-12-30T14:49:01.852Z,80.90
2017-12-30T14:51:28.338Z,80.80
2017-12-30T14:53:54.770Z,82.00
2017-12-30T14:56:21.180Z,82.00
2017-12-30T14:58:48.362Z,83.90
2017-12-30T15:01:14.757Z,83.90
2017-12-30T15:03:41.918Z,85.40
2017-12-30T15:06:09.037Z,86.90
2017-12-30T15:08:36.191Z,88.80
2017-12-30T15:11:03.330Z,88.90
2017-12-30T15:13:31.813Z,89.70
2017-12-30T15:15:59.227Z,89.70
2017-12-30T15:18:25.725Z,90.30
2017-12-30T15:20:52.211Z,90.60
2017-12-30T15:23:18.631Z,90.60
2017-12-30T15:25:45.316Z,90.60
2017-12-30T15:28:13.241Z,90.00
2017-12-30T15:30:39.638Z,90.00
2017-12-30T15:33:06.057Z,90.10
2017-12-30T15:35:32.429Z,90.10
2017-12-30T15:37:58.804Z,89.50
2017-12-30T15:40:25.193Z,89.50
2017-12-30T15:42:51.605Z,90.30
2017-12-30T15:45:18.034Z,90.70
2017-12-30T15:47:45.206Z,91.50
2017-12-30T15:50:11.650Z,91.50
2017-12-30T15:52:38.147Z,91.80
2017-12-30T15:55:05.413Z,91.30
2017-12-30T15:57:31.825Z,91.30
2017-12-30T15:59:58.280Z,90.90
2017-12-30T16:02:24.708Z,90.50
2017-12-30T16:04:51.112Z,90.20
2017-12-30T16:07:18.309Z,90.90
2017-12-30T16:09:44.762Z,90.70
2017-12-30T16:12:11.248Z,90.60
2017-12-30T16:14:38.404Z,90.40
2017-12-30T16:17:04.844Z,90.40
2017-12-30T16:19:32.813Z,90.90
2017-12-30T16:21:59.246Z,90.80
2017-12-30T16:24:25.666Z,90.70
2017-12-30T16:26:52.103Z,90.80
2017-12-30T16:29:19.245Z,91.20
2017-12-30T16:31:46.374Z,91.60
2017-12-30T16:34:12.776Z,91.60
2017-12-30T16:36:39.179Z,91.70
2017-12-30T16:39:05.624Z,91.30
2017-12-30T16:41:32.050Z,91.40
2017-12-30T16:43:58.426Z,90.90
2017-12-30T16:46:26.306Z,90.60
2017-12-30T16:48:52.738Z,90.60
2017-12-30T16:51:19.888Z,90.90
2017-12-30T16:53:47.010Z,90.70
2017-12-30T16:56:13.407Z,90.90
2017-12-30T16:58:39.773Z,90.60
2017-12-30T17:01:06.163Z,90.50
2017-12-30T17:03:33.306Z,91.30
2017-12-30T17:05:59.698Z,91.30
2017-12-30T17:08:26.128Z,91.70
2017-12-30T17:10:52.494Z,91.90
2017-12-30T17:13:19.618Z,91.10
2017-12-30T17:15:46.073Z,91.10
2017-12-30T17:18:13.249Z,91.50
2017-12-30T17:20:39.639Z,91.50
2017-12-30T17:23:06.022Z,91.30
2017-12-30T17:25:32.442Z,91.20
2017-12-30T17:27:58.871Z,91.00
2017-12-30T17:30:25.276Z,90.90
2017-12-30T17:32:52.417Z,90.60
2017-12-30T17:35:18.807Z,90.60
2017-12-30T17:37:45.195Z,90.30
2017-12-30T17:40:12.450Z,89.80
2017-12-30T17:42:39.615Z,89.50
2017-12-30T17:45:06.845Z,88.80
2017-12-30T17:47:34.069Z,88.50
2017-12-30T17:50:01.242Z,88.50
2017-12-30T17:52:28.489Z,89.10
2017-12-30T17:54:56.371Z,88.90
2017-12-30T17:57:23.528Z,89.20
2017-12-30T17:59:50.686Z,89.50
2017-12-30T18:02:17.217Z,89.40
2017-12-30T18:04:44.343Z,88.70
2017-12-30T18:07:11.522Z,88.40
2017-12-30T18:09:37.970Z,88.30
2017-12-30T18:12:04.427Z,88.30
2017-12-30T18:14:30.795Z,88.20
2017-12-30T18:16:57.249Z,87.90
2017-12-30T18:19:23.685Z,88.20
2017-12-30T18:21:50.126Z,88.00
2017-12-30T18:24:16.517Z,88.50
2017-12-30T18:26:42.919Z,88.30
2017-12-30T18:29:09.343Z,88.10
2017-12-30T18:31:35.773Z,88.00
2017-12-30T18:34:02.211Z,87.90
2017-12-30T18:36:28.607Z,88.90
2017-12-30T18:38:55.733Z,91.10
2017-12-30T18:41:22.444Z,91.10
2017-12-30T18:43:48.870Z,91.20
2017-12-30T18:46:15.284Z,90.60
2017-12-30T18:48:41.760Z,90.10
2017-12-30T18:51:08.158Z,89.30
2017-12-30T18:53:34.570Z,89.00
2017-12-30T18:56:01.001Z,88.20
2017-12-30T18:58:27.373Z,88.10
2017-12-30T19:00:53.871Z,88.10
2017-12-30T19:03:20.370Z,87.70
2017-12-30T19:05:47.534Z,88.00
2017-12-30T19:08:13.952Z,87.90
2017-12-30T19:10:41.116Z,88.10
2017-12-30T19:13:08.420Z,88.00
2017-12-30T19:15:34.829Z,88.00
2017-12-30T19:18:01.316Z,88.40
2017-12-30T19:20:28.540Z,90.00
2017-12-30T19:22:55.017Z,90.00
2017-12-30T19:25:21.442Z,90.10
2017-12-30T19:27:48.607Z,91.00
2017-12-30T19:30:15.773Z,90.50
2017-12-30T19:32:42.240Z,90.50
2017-12-30T19:35:08.712Z,90.50
2017-12-30T19:37:35.118Z,90.90
2017-12-30T19:40:01.540Z,91.40
2017-12-30T19:42:27.948Z,91.00
2017-12-30T19:44:54.360Z,90.90
2017-12-30T19:47:21.468Z,90.80
2017-12-30T19:49:47.840Z,90.80
2017-12-30T19:52:14.513Z,90.70
2017-12-30T19:54:41.676Z,90.50
2017-12-30T19:57:08.054Z,91.40
2017-12-30T19:59:34.464Z,91.30
2017-12-30T20:02:00.854Z,91.10
2017-12-30T20:04:27.258Z,90.80
2017-12-30T20:06:54.529Z,91.10
2017-12-30T20:09:20.930Z,91.00
2017-12-30T20:11:48.044Z,91.10
2017-12-30T20:14:14.447Z,91.10
2017-12-30T20:16:40.841Z,91.20
2017-12-30T20:19:07.984Z,91.30
2017-12-30T20:21:34.373Z,91.30
2017-12-30T20:24:01.562Z,91.30
2017-12-30T20:26:27.983Z,91.30
2017-12-30T20:28:54.371Z,90.90
2017-12-30T20:31:20.754Z,90.90
2017-12-30T20:33:47.118Z,90.80
2017-12-30T20:36:14.255Z,90.90
2017-12-30T20:38:41.399Z,90.80
2017-12-30T20:41:08.530Z,90.80
2017-12-30T20:43:34.910Z,90.80
2017-12-30T20:46:01.291Z,91.10
2017-12-30T20:48:27.690Z,91.10
2017-12-30T20:50:54.089Z,91.00
2017-12-30T20:53:21.247Z,91.00
2017-12-30T20:55:47.643Z,91.00
2017-12-30T20:58:14.058Z,91.20
2017-12-30T21:00:40.457Z,91.20
2017-12-30T21:03:06.853Z,91.00
2017-12-30T21:05:34.004Z,91.00
2017-12-30T21:08:01.158Z,91.00
2017-12-30T21:10:27.553Z,91.00
2017-12-30T21:12:53.957Z,91.30
2017-12-30T21:15:20.334Z,91.20
2017-12-30T21:17:46.727Z,91.00
2017-12-30T21:20:13.469Z,91.00
2017-12-30T21:22:39.862Z,90.70
2017-12-30T21:25:06.994Z,90.90
2017-12-30T21:27:34.864Z,91.20
2017-12-30T21:30:01.256Z,91.20
2017-12-30T21:32:27.662Z,91.20
2017-12-30T21:34:54.039Z,91.00
2017-12-30T21:37:20.409Z,91.00
2017-12-30T21:39:47.555Z,91.00
2017-12-30T21:42:14.674Z,91.30
2017-12-30T21:44:42.543Z,91.20
2017-12-30T21:47:08.946Z,91.20
2017-12-30T21:49:35.348Z,91.50
2017-12-30T21:52:01.736Z,91.40
2017-12-30T21:54:28.190Z,91.10
2017-12-30T21:56:55.310Z,91.30
2017-12-30T21:59:21.689Z,91.10
2017-12-30T22:01:48.083Z,91.10
2017-12-30T22:04:15.951Z,90.90
2017-12-30T22:06:42.340Z,90.90
2017-12-30T22:09:08.719Z,91.30
2017-12-30T22:11:36.580Z,91.00
2017-12-30T22:14:04.469Z,91.10
2017-12-30T22:16:31.611Z,91.30
2017-12-30T22:18:58.748Z,91.40
2017-12-30T22:21:25.150Z,91.50
2017-12-30T22:23:51.550Z,91.30
2017-12-30T22:26:18.782Z,91.00
2017-12-30T22:28:45.918Z,91.00
2017-12-30T22:31:13.784Z,91.20
2017-12-30T22:33:41.684Z,91.10
2017-12-30T22:36:08.788Z,90.80
2017-12-30T22:38:35.232Z,90.80
2017-12-30T22:41:03.171Z,90.60
2017-12-30T22:43:29.621Z,90.60
2017-12-30T22:45:56.772Z,90.80
2017-12-30T22:48:23.182Z,90.80
2017-12-30T22:50:49.603Z,91.20
2017-12-30T22:53:16.026Z,91.30
2017-12-30T22:55:42.416Z,91.40
2017-12-30T22:58:08.801Z,91.50
2017-12-30T23:00:36.997Z,91.60
2017-12-30T23:03:03.386Z,91.70
2017-12-30T23:05:29.765Z,91.60
2017-12-30T23:07:57.635Z,92.10
2017-12-30T23:10:24.015Z,91.80
2017-12-30T23:12:51.122Z,91.30
2017-12-30T23:15:19.006Z,91.00
2017-12-30T23:17:45.387Z,90.90
2017-12-30T23:20:11.872Z,90.70
2017-12-30T23:22:38.296Z,90.70
2017-12-30T23:25:04.682Z,90.60
2017-12-30T23:27:31.066Z,90.80
2017-12-30T23:29:57.447Z,90.50
2017-12-30T23:32:23.854Z,90.30
2017-12-30T23:34:50.249Z,90.50
2017-12-30T23:37:17.563Z,90.50
2017-12-30T23:39:43.968Z,90.50
2017-12-30T23:42:11.126Z,90.70
2017-12-30T23:44:37.536Z,90.60
2017-12-30T23:47:04.696Z,90.60
2017-12-30T23:49:31.859Z,90.90
2017-12-30T23:51:58.280Z,90.90
2017-12-30T23:54:24.679Z,91.20
2017-12-30T23:56:52.563Z,91.20
2017-12-30T23:59:19.744Z,91.00
